sensor_id;sensor_type;location;lat;lon;timestamp;P1;durP1;ratioP1;P2;durP2;ratioP2
16824;SDS011;8529;48.108;-1.706;2022-11-12T00:00:08;17.08;;;10.73;;
16824;SDS011;8529;48.108;-1.706;2022-11-12T00:02:37;14.65;;;9.82;;
16824;SDS011;8529;48.108;-1.706;2022-11-12T00:05:04;15.93;;;10.55;;
16824;SDS011;8529;48.108;-1.706;2022-11-12T00:07:31;16.35;;;10.52;;
16824;SDS011;8529;48.108;-1.706;2022-11-12T00:09:58;14.85;;;10.77;;
16824;SDS011;8529;48.108;-1.706;2022-11-12T00:12:25;16.75;;;11.20;;
16824;SDS011;8529;48.108;-1.706;2022-11-12T00:14:52;14.60;;;10.50;;
16824;SDS011;8529;48.108;-1.706;2022-11-12T00:17:19;22.02;;;10.52;;
16824;SDS011;8529;48.108;-1.706;2022-11-12T00:19:48;19.27;;;10.27;;
16824;SDS011;8529;48.108;-1.706;2022-11-12T00:22:15;15.88;;;10.52;;
16824;SDS011;8529;48.108;-1.706;2022-11-12T00:24:42;14.32;;;11.10;;
16824;SDS011;8529;48.108;-1.706;2022-11-12T00:27:09;14.18;;;10.30;;
16824;SDS011;8529;48.108;-1.706;2022-11-12T00:29:36;15.63;;;10.43;;
16824;SDS011;8529;48.108;-1.706;2022-11-12T00:32:03;16.95;;;11.10;;
16824;SDS011;8529;48.108;-1.706;2022-11-12T00:34:30;16.90;;;10.55;;
16824;SDS011;8529;48.108;-1.706;2022-11-12T00:36:59;18.88;;;11.40;;
16824;SDS011;8529;48.108;-1.706;2022-11-12T00:39:26;15.25;;;9.88;;
16824;SDS011;8529;48.108;-1.706;2022-11-12T00:41:53;15.70;;;10.85;;
16824;SDS011;8529;48.108;-1.706;2022-11-12T00:44:21;17.13;;;11.32;;
16824;SDS011;8529;48.108;-1.706;2022-11-12T00:46:47;17.67;;;11.07;;
16824;SDS011;8529;48.108;-1.706;2022-11-12T00:49:15;17.90;;;11.90;;
16824;SDS011;8529;48.108;-1.706;2022-11-12T00:51:42;19.92;;;13.00;;
16824;SDS011;8529;48.108;-1.706;2022-11-12T00:54:11;18.60;;;13.38;;
16824;SDS011;8529;48.108;-1.706;2022-11-12T00:56:38;19.40;;;13.10;;
16824;SDS011;8529;48.108;-1.706;2022-11-12T00:59:04;17.63;;;12.77;;
16824;SDS011;8529;48.108;-1.706;2022-11-12T01:01:32;17.20;;;11.65;;
16824;SDS011;8529;48.108;-1.706;2022-11-12T01:03:59;16.83;;;11.82;;
16824;SDS011;8529;48.108;-1.706;2022-11-12T01:06:26;16.02;;;11.07;;
16824;SDS011;8529;48.108;-1.706;2022-11-12T01:08:53;15.68;;;10.48;;
16824;SDS011;8529;48.108;-1.706;2022-11-12T01:11:23;15.05;;;10.15;;
16824;SDS011;8529;48.108;-1.706;2022-11-12T01:13:52;14.93;;;10.27;;
16824;SDS011;8529;48.108;-1.706;2022-11-12T01:16:21;13.63;;;9.57;;
16824;SDS011;8529;48.108;-1.706;2022-11-12T01:18:51;14.13;;;10.25;;
16824;SDS011;8529;48.108;-1.706;2022-11-12T01:21:19;17.98;;;9.68;;
16824;SDS011;8529;48.108;-1.706;2022-11-12T01:23:46;17.67;;;10.98;;
16824;SDS011;8529;48.108;-1.706;2022-11-12T01:26:14;20.25;;;11.27;;
16824;SDS011;8529;48.108;-1.706;2022-11-12T01:28:43;16.20;;;11.13;;
16824;SDS011;8529;48.108;-1.706;2022-11-12T01:31:12;16.88;;;10.27;;
16824;SDS011;8529;48.108;-1.706;2022-11-12T01:33:41;17.20;;;10.73;;
16824;SDS011;8529;48.108;-1.706;2022-11-12T01:36:09;15.77;;;10.13;;
16824;SDS011;8529;48.108;-1.706;2022-11-12T01:38:37;19.35;;;10.35;;
16824;SDS011;8529;48.108;-1.706;2022-11-12T01:41:06;18.60;;;10.57;;
16824;SDS011;8529;48.108;-1.706;2022-11-12T01:43:34;17.58;;;10.20;;
16824;SDS011;8529;48.108;-1.706;2022-11-12T01:46:03;18.23;;;10.68;;
16824;SDS011;8529;48.108;-1.706;2022-11-12T01:48:36;16.92;;;10.35;;
16824;SDS011;8529;48.108;-1.706;2022-11-12T01:51:06;21.52;;;13.68;;
16824;SDS011;8529;48.108;-1.706;2022-11-12T01:53:35;26.38;;;15.85;;
16824;SDS011;8529;48.108;-1.706;2022-11-12T01:56:05;18.17;;;11.23;;
16824;SDS011;8529;48.108;-1.706;2022-11-12T01:58:32;17.77;;;11.27;;
16824;SDS011;8529;48.108;-1.706;2022-11-12T02:01:04;18.05;;;12.43;;
16824;SDS011;8529;48.108;-1.706;2022-11-12T02:03:31;17.90;;;11.80;;
16824;SDS011;8529;48.108;-1.706;2022-11-12T02:05:58;18.00;;;12.00;;
16824;SDS011;8529;48.108;-1.706;2022-11-12T02:08:28;16.10;;;10.88;;
16824;SDS011;8529;48.108;-1.706;2022-11-12T02:10:56;17.33;;;11.73;;
16824;SDS011;8529;48.108;-1.706;2022-11-12T02:13:23;14.75;;;10.18;;
16824;SDS011;8529;48.108;-1.706;2022-11-12T02:16:08;16.55;;;10.15;;
16824;SDS011;8529;48.108;-1.706;2022-11-12T02:18:36;12.65;;;9.18;;
16824;SDS011;8529;48.108;-1.706;2022-11-12T02:21:04;13.15;;;9.30;;
16824;SDS011;8529;48.108;-1.706;2022-11-12T02:23:35;13.50;;;8.88;;
16824;SDS011;8529;48.108;-1.706;2022-11-12T02:26:03;13.18;;;9.20;;
16824;SDS011;8529;48.108;-1.706;2022-11-12T02:28:30;13.07;;;8.88;;
16824;SDS011;8529;48.108;-1.706;2022-11-12T02:30:58;15.10;;;9.75;;
16824;SDS011;8529;48.108;-1.706;2022-11-12T02:33:25;15.32;;;9.15;;
16824;SDS011;8529;48.108;-1.706;2022-11-12T02:35:52;15.25;;;9.40;;
16824;SDS011;8529;48.108;-1.706;2022-11-12T02:38:19;13.13;;;8.85;;
16824;SDS011;8529;48.108;-1.706;2022-11-12T02:40:47;14.20;;;9.45;;
16824;SDS011;8529;48.108;-1.706;2022-11-12T02:43:14;13.38;;;8.93;;
16824;SDS011;8529;48.108;-1.706;2022-11-12T02:45:41;13.20;;;9.68;;
16824;SDS011;8529;48.108;-1.706;2022-11-12T02:48:08;14.75;;;10.30;;
16824;SDS011;8529;48.108;-1.706;2022-11-12T02:50:35;16.42;;;11.10;;
16824;SDS011;8529;48.108;-1.706;2022-11-12T02:53:02;15.57;;;10.48;;
16824;SDS011;8529;48.108;-1.706;2022-11-12T02:55:29;16.17;;;11.18;;
16824;SDS011;8529;48.108;-1.706;2022-11-12T02:57:57;21.33;;;12.93;;
16824;SDS011;8529;48.108;-1.706;2022-11-12T03:00:25;17.08;;;12.65;;
16824;SDS011;8529;48.108;-1.706;2022-11-12T03:02:52;20.45;;;13.45;;
16824;SDS011;8529;48.108;-1.706;2022-11-12T03:05:24;23.00;;;15.20;;
16824;SDS011;8529;48.108;-1.706;2022-11-12T03:07:54;23.20;;;14.70;;
16824;SDS011;8529;48.108;-1.706;2022-11-12T03:10:23;23.27;;;14.80;;
16824;SDS011;8529;48.108;-1.706;2022-11-12T03:12:50;22.50;;;15.02;;
16824;SDS011;8529;48.108;-1.706;2022-11-12T03:15:19;23.90;;;16.00;;
16824;SDS011;8529;48.108;-1.706;2022-11-12T03:17:46;21.20;;;14.65;;
16824;SDS011;8529;48.108;-1.706;2022-11-12T03:20:13;22.33;;;14.32;;
16824;SDS011;8529;48.108;-1.706;2022-11-12T03:22:40;23.42;;;14.90;;
16824;SDS011;8529;48.108;-1.706;2022-11-12T03:25:08;20.60;;;13.93;;
16824;SDS011;8529;48.108;-1.706;2022-11-12T03:27:35;22.58;;;14.27;;
16824;SDS011;8529;48.108;-1.706;2022-11-12T03:30:02;22.80;;;14.80;;
16824;SDS011;8529;48.108;-1.706;2022-11-12T03:32:31;21.95;;;13.32;;
16824;SDS011;8529;48.108;-1.706;2022-11-12T03:34:58;19.20;;;13.40;;
16824;SDS011;8529;48.108;-1.706;2022-11-12T03:37:24;17.20;;;11.70;;
16824;SDS011;8529;48.108;-1.706;2022-11-12T03:39:51;17.20;;;11.77;;
16824;SDS011;8529;48.108;-1.706;2022-11-12T03:42:18;18.98;;;11.82;;
16824;SDS011;8529;48.108;-1.706;2022-11-12T03:44:45;16.67;;;11.50;;
16824;SDS011;8529;48.108;-1.706;2022-11-12T03:47:12;15.35;;;10.68;;
16824;SDS011;8529;48.108;-1.706;2022-11-12T03:49:40;15.00;;;11.07;;
16824;SDS011;8529;48.108;-1.706;2022-11-12T03:52:07;15.52;;;10.38;;
16824;SDS011;8529;48.108;-1.706;2022-11-12T03:54:34;17.40;;;10.65;;
16824;SDS011;8529;48.108;-1.706;2022-11-12T03:57:01;16.90;;;10.13;;
16824;SDS011;8529;48.108;-1.706;2022-11-12T03:59:28;12.50;;;9.80;;
16824;SDS011;8529;48.108;-1.706;2022-11-12T04:01:55;18.40;;;10.35;;
16824;SDS011;8529;48.108;-1.706;2022-11-12T04:04:22;17.48;;;10.40;;
16824;SDS011;8529;48.108;-1.706;2022-11-12T04:07:10;13.77;;;10.20;;
16824;SDS011;8529;48.108;-1.706;2022-11-12T04:09:54;15.52;;;10.90;;
16824;SDS011;8529;48.108;-1.706;2022-11-12T04:12:21;16.05;;;9.80;;
16824;SDS011;8529;48.108;-1.706;2022-11-12T04:15:06;14.95;;;10.05;;
16824;SDS011;8529;48.108;-1.706;2022-11-12T04:17:33;12.05;;;8.52;;
16824;SDS011;8529;48.108;-1.706;2022-11-12T04:20:18;11.43;;;9.20;;
16824;SDS011;8529;48.108;-1.706;2022-11-12T04:23:03;14.02;;;9.05;;
16824;SDS011;8529;48.108;-1.706;2022-11-12T04:25:30;15.40;;;9.63;;
16824;SDS011;8529;48.108;-1.706;2022-11-12T04:28:15;14.73;;;9.43;;
16824;SDS011;8529;48.108;-1.706;2022-11-12T04:30:42;12.40;;;9.32;;
16824;SDS011;8529;48.108;-1.706;2022-11-12T04:33:08;12.82;;;9.85;;
16824;SDS011;8529;48.108;-1.706;2022-11-12T04:35:35;12.95;;;8.73;;
16824;SDS011;8529;48.108;-1.706;2022-11-12T04:38:01;13.38;;;9.63;;
16824;SDS011;8529;48.108;-1.706;2022-11-12T04:40:30;12.98;;;9.45;;
16824;SDS011;8529;48.108;-1.706;2022-11-12T04:43:15;14.20;;;9.43;;
16824;SDS011;8529;48.108;-1.706;2022-11-12T04:46:00;13.73;;;9.57;;
16824;SDS011;8529;48.108;-1.706;2022-11-12T04:48:29;14.05;;;10.02;;
16824;SDS011;8529;48.108;-1.706;2022-11-12T04:50:58;16.85;;;11.60;;
16824;SDS011;8529;48.108;-1.706;2022-11-12T04:53:28;14.25;;;9.10;;
16824;SDS011;8529;48.108;-1.706;2022-11-12T04:55:56;12.23;;;8.85;;
16824;SDS011;8529;48.108;-1.706;2022-11-12T04:58:24;13.52;;;8.93;;
16824;SDS011;8529;48.108;-1.706;2022-11-12T05:00:51;12.02;;;8.80;;
16824;SDS011;8529;48.108;-1.706;2022-11-12T05:03:18;13.10;;;8.05;;
16824;SDS011;8529;48.108;-1.706;2022-11-12T05:05:45;13.93;;;8.77;;
16824;SDS011;8529;48.108;-1.706;2022-11-12T05:08:12;13.63;;;8.98;;
16824;SDS011;8529;48.108;-1.706;2022-11-12T05:10:40;13.43;;;8.95;;
16824;SDS011;8529;48.108;-1.706;2022-11-12T05:13:07;11.90;;;8.68;;
16824;SDS011;8529;48.108;-1.706;2022-11-12T05:15:34;10.98;;;8.65;;
16824;SDS011;8529;48.108;-1.706;2022-11-12T05:18:01;12.27;;;8.77;;
16824;SDS011;8529;48.108;-1.706;2022-11-12T05:20:27;13.68;;;9.27;;
16824;SDS011;8529;48.108;-1.706;2022-11-12T05:22:54;13.85;;;9.63;;
16824;SDS011;8529;48.108;-1.706;2022-11-12T05:25:21;14.23;;;9.05;;
16824;SDS011;8529;48.108;-1.706;2022-11-12T05:27:49;15.45;;;9.13;;
16824;SDS011;8529;48.108;-1.706;2022-11-12T05:30:17;13.48;;;9.52;;
16824;SDS011;8529;48.108;-1.706;2022-11-12T05:32:43;13.77;;;9.75;;
16824;SDS011;8529;48.108;-1.706;2022-11-12T05:35:10;14.20;;;8.15;;
16824;SDS011;8529;48.108;-1.706;2022-11-12T05:37:37;14.88;;;9.43;;
16824;SDS011;8529;48.108;-1.706;2022-11-12T05:40:05;12.88;;;9.15;;
16824;SDS011;8529;48.108;-1.706;2022-11-12T05:42:32;14.43;;;9.43;;
16824;SDS011;8529;48.108;-1.706;2022-11-12T05:45:01;15.23;;;9.98;;
16824;SDS011;8529;48.108;-1.706;2022-11-12T05:47:28;12.55;;;9.23;;
16824;SDS011;8529;48.108;-1.706;2022-11-12T05:49:54;16.02;;;8.70;;
16824;SDS011;8529;48.108;-1.706;2022-11-12T05:52:21;12.50;;;9.13;;
16824;SDS011;8529;48.108;-1.706;2022-11-12T05:54:48;15.82;;;10.20;;
16824;SDS011;8529;48.108;-1.706;2022-11-12T05:57:15;13.90;;;9.45;;
16824;SDS011;8529;48.108;-1.706;2022-11-12T05:59:42;14.23;;;10.18;;
16824;SDS011;8529;48.108;-1.706;2022-11-12T06:02:10;15.25;;;10.35;;
16824;SDS011;8529;48.108;-1.706;2022-11-12T06:04:37;17.08;;;10.50;;
16824;SDS011;8529;48.108;-1.706;2022-11-12T06:07:04;15.68;;;10.25;;
16824;SDS011;8529;48.108;-1.706;2022-11-12T06:09:31;12.65;;;9.20;;
16824;SDS011;8529;48.108;-1.706;2022-11-12T06:11:58;19.23;;;11.23;;
16824;SDS011;8529;48.108;-1.706;2022-11-12T06:14:26;13.95;;;9.55;;
16824;SDS011;8529;48.108;-1.706;2022-11-12T06:16:53;12.82;;;8.73;;
16824;SDS011;8529;48.108;-1.706;2022-11-12T06:19:21;13.52;;;9.18;;
16824;SDS011;8529;48.108;-1.706;2022-11-12T06:21:48;14.20;;;9.20;;
16824;SDS011;8529;48.108;-1.706;2022-11-12T06:24:15;16.00;;;10.20;;
16824;SDS011;8529;48.108;-1.706;2022-11-12T06:26:42;16.33;;;10.35;;
16824;SDS011;8529;48.108;-1.706;2022-11-12T06:29:09;13.43;;;9.60;;
16824;SDS011;8529;48.108;-1.706;2022-11-12T06:31:36;14.20;;;9.38;;
16824;SDS011;8529;48.108;-1.706;2022-11-12T06:34:03;15.90;;;9.55;;
16824;SDS011;8529;48.108;-1.706;2022-11-12T06:36:32;13.30;;;9.90;;
16824;SDS011;8529;48.108;-1.706;2022-11-12T06:38:59;14.32;;;9.48;;
16824;SDS011;8529;48.108;-1.706;2022-11-12T06:41:26;13.73;;;9.57;;
16824;SDS011;8529;48.108;-1.706;2022-11-12T06:43:53;19.40;;;10.07;;
16824;SDS011;8529;48.108;-1.706;2022-11-12T06:46:20;14.10;;;9.80;;
16824;SDS011;8529;48.108;-1.706;2022-11-12T06:48:46;16.13;;;10.52;;
16824;SDS011;8529;48.108;-1.706;2022-11-12T06:51:15;14.73;;;9.93;;
16824;SDS011;8529;48.108;-1.706;2022-11-12T06:53:44;17.67;;;10.60;;
16824;SDS011;8529;48.108;-1.706;2022-11-12T06:56:12;15.82;;;10.02;;
16824;SDS011;8529;48.108;-1.706;2022-11-12T06:58:39;13.18;;;8.90;;
16824;SDS011;8529;48.108;-1.706;2022-11-12T07:01:07;14.38;;;10.00;;
16824;SDS011;8529;48.108;-1.706;2022-11-12T07:03:36;14.65;;;10.13;;
16824;SDS011;8529;48.108;-1.706;2022-11-12T07:06:04;16.65;;;10.23;;
16824;SDS011;8529;48.108;-1.706;2022-11-12T07:08:32;14.90;;;9.88;;
16824;SDS011;8529;48.108;-1.706;2022-11-12T07:11:00;16.30;;;10.65;;
16824;SDS011;8529;48.108;-1.706;2022-11-12T07:13:28;20.10;;;10.77;;
16824;SDS011;8529;48.108;-1.706;2022-11-12T07:15:57;15.75;;;10.55;;
16824;SDS011;8529;48.108;-1.706;2022-11-12T07:18:24;14.88;;;10.65;;
16824;SDS011;8529;48.108;-1.706;2022-11-12T07:20:55;14.13;;;10.13;;
16824;SDS011;8529;48.108;-1.706;2022-11-12T07:23:23;16.30;;;10.98;;
16824;SDS011;8529;48.108;-1.706;2022-11-12T07:25:54;16.58;;;10.70;;
16824;SDS011;8529;48.108;-1.706;2022-11-12T07:28:23;18.95;;;11.27;;
16824;SDS011;8529;48.108;-1.706;2022-11-12T07:30:53;15.52;;;10.57;;
16824;SDS011;8529;48.108;-1.706;2022-11-12T07:33:21;14.35;;;10.05;;
16824;SDS011;8529;48.108;-1.706;2022-11-12T07:35:48;17.13;;;10.90;;
16824;SDS011;8529;48.108;-1.706;2022-11-12T07:38:22;15.38;;;10.43;;
16824;SDS011;8529;48.108;-1.706;2022-11-12T07:40:49;14.90;;;10.07;;
16824;SDS011;8529;48.108;-1.706;2022-11-12T07:43:15;16.90;;;11.23;;
16824;SDS011;8529;48.108;-1.706;2022-11-12T07:45:44;15.90;;;10.52;;
16824;SDS011;8529;48.108;-1.706;2022-11-12T07:48:10;14.73;;;10.18;;
16824;SDS011;8529;48.108;-1.706;2022-11-12T07:50:37;14.05;;;10.27;;
16824;SDS011;8529;48.108;-1.706;2022-11-12T07:53:04;17.00;;;10.90;;
16824;SDS011;8529;48.108;-1.706;2022-11-12T07:55:31;17.60;;;10.75;;
16824;SDS011;8529;48.108;-1.706;2022-11-12T07:57:58;16.92;;;10.70;;
16824;SDS011;8529;48.108;-1.706;2022-11-12T08:00:25;16.27;;;10.55;;
16824;SDS011;8529;48.108;-1.706;2022-11-12T08:02:53;14.82;;;10.82;;
16824;SDS011;8529;48.108;-1.706;2022-11-12T08:05:20;17.33;;;10.60;;
16824;SDS011;8529;48.108;-1.706;2022-11-12T08:07:47;15.55;;;10.55;;
16824;SDS011;8529;48.108;-1.706;2022-11-12T08:10:14;14.98;;;10.48;;
16824;SDS011;8529;48.108;-1.706;2022-11-12T08:12:41;15.88;;;11.25;;
16824;SDS011;8529;48.108;-1.706;2022-11-12T08:15:08;15.05;;;10.40;;
16824;SDS011;8529;48.108;-1.706;2022-11-12T08:17:36;14.57;;;10.27;;
16824;SDS011;8529;48.108;-1.706;2022-11-12T08:20:06;18.33;;;11.52;;
16824;SDS011;8529;48.108;-1.706;2022-11-12T08:22:33;18.38;;;11.32;;
16824;SDS011;8529;48.108;-1.706;2022-11-12T08:25:00;15.48;;;10.65;;
16824;SDS011;8529;48.108;-1.706;2022-11-12T08:27:27;16.58;;;11.75;;
16824;SDS011;8529;48.108;-1.706;2022-11-12T08:29:54;19.35;;;11.60;;
16824;SDS011;8529;48.108;-1.706;2022-11-12T08:32:21;17.20;;;11.20;;
16824;SDS011;8529;48.108;-1.706;2022-11-12T08:34:48;16.30;;;10.75;;
16824;SDS011;8529;48.108;-1.706;2022-11-12T08:37:16;19.63;;;11.80;;
16824;SDS011;8529;48.108;-1.706;2022-11-12T08:39:43;17.85;;;11.57;;
16824;SDS011;8529;48.108;-1.706;2022-11-12T08:42:10;18.15;;;11.63;;
16824;SDS011;8529;48.108;-1.706;2022-11-12T08:44:37;16.58;;;10.68;;
16824;SDS011;8529;48.108;-1.706;2022-11-12T08:47:04;16.88;;;11.75;;
16824;SDS011;8529;48.108;-1.706;2022-11-12T08:49:31;23.52;;;12.70;;
16824;SDS011;8529;48.108;-1.706;2022-11-12T08:51:58;18.90;;;12.35;;
16824;SDS011;8529;48.108;-1.706;2022-11-12T08:54:26;16.98;;;11.27;;
16824;SDS011;8529;48.108;-1.706;2022-11-12T08:56:54;17.80;;;11.55;;
16824;SDS011;8529;48.108;-1.706;2022-11-12T08:59:21;17.77;;;11.48;;
16824;SDS011;8529;48.108;-1.706;2022-11-12T09:01:48;15.65;;;10.93;;
16824;SDS011;8529;48.108;-1.706;2022-11-12T09:04:15;16.40;;;11.82;;
16824;SDS011;8529;48.108;-1.706;2022-11-12T09:06:41;19.40;;;11.98;;
16824;SDS011;8529;48.108;-1.706;2022-11-12T09:09:08;16.38;;;11.05;;
16824;SDS011;8529;48.108;-1.706;2022-11-12T09:11:37;15.70;;;11.82;;
16824;SDS011;8529;48.108;-1.706;2022-11-12T09:14:04;18.60;;;12.25;;
16824;SDS011;8529;48.108;-1.706;2022-11-12T09:16:31;17.10;;;11.50;;
16824;SDS011;8529;48.108;-1.706;2022-11-12T09:18:57;18.35;;;12.20;;
16824;SDS011;8529;48.108;-1.706;2022-11-12T09:21:24;17.35;;;12.05;;
16824;SDS011;8529;48.108;-1.706;2022-11-12T09:23:51;18.90;;;11.95;;
16824;SDS011;8529;48.108;-1.706;2022-11-12T09:26:19;19.77;;;12.40;;
16824;SDS011;8529;48.108;-1.706;2022-11-12T09:28:47;17.73;;;12.80;;
16824;SDS011;8529;48.108;-1.706;2022-11-12T09:31:16;18.08;;;12.20;;
16824;SDS011;8529;48.108;-1.706;2022-11-12T09:33:43;20.98;;;13.23;;
16824;SDS011;8529;48.108;-1.706;2022-11-12T09:36:10;15.93;;;11.23;;
16824;SDS011;8529;48.108;-1.706;2022-11-12T09:38:37;19.35;;;12.13;;
16824;SDS011;8529;48.108;-1.706;2022-11-12T09:41:10;18.52;;;12.13;;
16824;SDS011;8529;48.108;-1.706;2022-11-12T09:43:49;18.33;;;12.25;;
16824;SDS011;8529;48.108;-1.706;2022-11-12T09:46:28;21.15;;;13.45;;
16824;SDS011;8529;48.108;-1.706;2022-11-12T09:49:03;20.15;;;13.07;;
16824;SDS011;8529;48.108;-1.706;2022-11-12T09:51:34;19.33;;;13.57;;
16824;SDS011;8529;48.108;-1.706;2022-11-12T09:54:05;19.30;;;13.73;;
16824;SDS011;8529;48.108;-1.706;2022-11-12T09:56:45;19.45;;;12.35;;
16824;SDS011;8529;48.108;-1.706;2022-11-12T09:59:14;16.30;;;11.38;;
16824;SDS011;8529;48.108;-1.706;2022-11-12T10:01:48;19.85;;;13.05;;
16824;SDS011;8529;48.108;-1.706;2022-11-12T10:07:22;21.13;;;14.27;;
16824;SDS011;8529;48.108;-1.706;2022-11-12T10:10:00;21.50;;;16.23;;
16824;SDS011;8529;48.108;-1.706;2022-11-12T10:12:33;23.85;;;13.90;;
16824;SDS011;8529;48.108;-1.706;2022-11-12T10:15:16;18.73;;;13.32;;
16824;SDS011;8529;48.108;-1.706;2022-11-12T10:18:15;19.65;;;12.45;;
16824;SDS011;8529;48.108;-1.706;2022-11-12T10:20:54;20.35;;;13.43;;
16824;SDS011;8529;48.108;-1.706;2022-11-12T10:23:23;22.17;;;15.13;;
16824;SDS011;8529;48.108;-1.706;2022-11-12T10:25:56;20.52;;;14.00;;
16824;SDS011;8529;48.108;-1.706;2022-11-12T10:28:26;18.67;;;13.30;;
16824;SDS011;8529;48.108;-1.706;2022-11-12T10:30:56;16.73;;;12.75;;
16824;SDS011;8529;48.108;-1.706;2022-11-12T10:33:28;18.83;;;12.75;;
16824;SDS011;8529;48.108;-1.706;2022-11-12T10:35:56;18.63;;;12.85;;
16824;SDS011;8529;48.108;-1.706;2022-11-12T10:38:37;19.73;;;12.82;;
16824;SDS011;8529;48.108;-1.706;2022-11-12T10:41:16;20.60;;;12.63;;
16824;SDS011;8529;48.108;-1.706;2022-11-12T10:43:51;18.02;;;13.68;;
16824;SDS011;8529;48.108;-1.706;2022-11-12T10:46:22;18.58;;;13.23;;
16824;SDS011;8529;48.108;-1.706;2022-11-12T10:48:53;20.65;;;13.10;;
16824;SDS011;8529;48.108;-1.706;2022-11-12T10:51:27;16.98;;;11.88;;
16824;SDS011;8529;48.108;-1.706;2022-11-12T10:53:56;17.73;;;11.77;;
16824;SDS011;8529;48.108;-1.706;2022-11-12T10:56:25;24.20;;;16.52;;
16824;SDS011;8529;48.108;-1.706;2022-11-12T10:59:09;18.77;;;13.05;;
16824;SDS011;8529;48.108;-1.706;2022-11-12T11:01:41;17.40;;;11.85;;
16824;SDS011;8529;48.108;-1.706;2022-11-12T11:04:18;18.05;;;12.23;;
16824;SDS011;8529;48.108;-1.706;2022-11-12T11:06:59;19.70;;;13.15;;
16824;SDS011;8529;48.108;-1.706;2022-11-12T11:09:30;19.77;;;11.65;;
16824;SDS011;8529;48.108;-1.706;2022-11-12T11:11:57;19.40;;;12.70;;
16824;SDS011;8529;48.108;-1.706;2022-11-12T11:14:29;19.10;;;12.02;;
16824;SDS011;8529;48.108;-1.706;2022-11-12T11:16:59;26.88;;;15.52;;
16824;SDS011;8529;48.108;-1.706;2022-11-12T11:19:34;17.80;;;11.95;;
16824;SDS011;8529;48.108;-1.706;2022-11-12T11:22:06;24.02;;;15.68;;
16824;SDS011;8529;48.108;-1.706;2022-11-12T11:24:43;20.48;;;13.95;;
16824;SDS011;8529;48.108;-1.706;2022-11-12T11:27:23;23.50;;;12.98;;
16824;SDS011;8529;48.108;-1.706;2022-11-12T11:30:00;17.17;;;12.10;;
16824;SDS011;8529;48.108;-1.706;2022-11-12T11:32:39;17.45;;;11.95;;
16824;SDS011;8529;48.108;-1.706;2022-11-12T11:35:19;16.92;;;12.32;;
16824;SDS011;8529;48.108;-1.706;2022-11-12T11:37:58;19.25;;;12.23;;
16824;SDS011;8529;48.108;-1.706;2022-11-12T11:40:37;16.42;;;12.77;;
16824;SDS011;8529;48.108;-1.706;2022-11-12T11:43:15;22.13;;;14.88;;
16824;SDS011;8529;48.108;-1.706;2022-11-12T11:46:05;20.38;;;14.05;;
16824;SDS011;8529;48.108;-1.706;2022-11-12T11:48:45;19.85;;;13.15;;
16824;SDS011;8529;48.108;-1.706;2022-11-12T11:51:25;22.73;;;14.32;;
16824;SDS011;8529;48.108;-1.706;2022-11-12T11:54:03;20.98;;;12.43;;
16824;SDS011;8529;48.108;-1.706;2022-11-12T11:56:39;19.63;;;12.98;;
16824;SDS011;8529;48.108;-1.706;2022-11-12T11:59:15;17.33;;;12.15;;
16824;SDS011;8529;48.108;-1.706;2022-11-12T12:02:02;18.25;;;11.23;;
16824;SDS011;8529;48.108;-1.706;2022-11-12T12:04:46;21.50;;;12.57;;
16824;SDS011;8529;48.108;-1.706;2022-11-12T12:07:19;16.75;;;12.02;;
16824;SDS011;8529;48.108;-1.706;2022-11-12T12:09:54;18.88;;;12.63;;
16824;SDS011;8529;48.108;-1.706;2022-11-12T12:12:31;22.35;;;13.00;;
16824;SDS011;8529;48.108;-1.706;2022-11-12T12:18:00;19.48;;;12.98;;
16824;SDS011;8529;48.108;-1.706;2022-11-12T12:20:38;19.60;;;13.25;;
16824;SDS011;8529;48.108;-1.706;2022-11-12T12:23:13;17.77;;;12.63;;
16824;SDS011;8529;48.108;-1.706;2022-11-12T12:25:48;26.05;;;13.27;;
16824;SDS011;8529;48.108;-1.706;2022-11-12T12:28:21;19.05;;;12.98;;
16824;SDS011;8529;48.108;-1.706;2022-11-12T12:30:59;21.52;;;13.88;;
16824;SDS011;8529;48.108;-1.706;2022-11-12T12:33:32;19.05;;;13.02;;
16824;SDS011;8529;48.108;-1.706;2022-11-12T12:36:04;19.15;;;13.20;;
16824;SDS011;8529;48.108;-1.706;2022-11-12T12:38:36;19.17;;;12.77;;
16824;SDS011;8529;48.108;-1.706;2022-11-12T12:41:10;20.63;;;12.23;;
16824;SDS011;8529;48.108;-1.706;2022-11-12T12:43:43;21.85;;;11.75;;
16824;SDS011;8529;48.108;-1.706;2022-11-12T12:46:13;18.40;;;12.35;;
16824;SDS011;8529;48.108;-1.706;2022-11-12T12:48:42;17.92;;;11.88;;
16824;SDS011;8529;48.108;-1.706;2022-11-12T12:51:13;18.75;;;12.35;;
16824;SDS011;8529;48.108;-1.706;2022-11-12T12:53:40;37.97;;;22.00;;
16824;SDS011;8529;48.108;-1.706;2022-11-12T12:56:40;16.52;;;11.98;;
16824;SDS011;8529;48.108;-1.706;2022-11-12T12:59:17;19.63;;;11.50;;
16824;SDS011;8529;48.108;-1.706;2022-11-12T13:01:49;17.15;;;11.90;;
16824;SDS011;8529;48.108;-1.706;2022-11-12T13:07:17;17.88;;;10.50;;
16824;SDS011;8529;48.108;-1.706;2022-11-12T13:09:48;16.88;;;10.80;;
16824;SDS011;8529;48.108;-1.706;2022-11-12T13:12:15;23.83;;;11.23;;
16824;SDS011;8529;48.108;-1.706;2022-11-12T13:14:53;19.08;;;11.00;;
16824;SDS011;8529;48.108;-1.706;2022-11-12T13:17:45;18.30;;;11.73;;
16824;SDS011;8529;48.108;-1.706;2022-11-12T13:26:44;16.40;;;10.73;;
16824;SDS011;8529;48.108;-1.706;2022-11-12T13:29:17;17.25;;;11.13;;
16824;SDS011;8529;48.108;-1.706;2022-11-12T13:31:46;15.68;;;10.98;;
16824;SDS011;8529;48.108;-1.706;2022-11-12T13:34:17;15.18;;;10.52;;
16824;SDS011;8529;48.108;-1.706;2022-11-12T13:36:53;15.70;;;10.13;;
16824;SDS011;8529;48.108;-1.706;2022-11-12T13:39:23;16.08;;;9.05;;
16824;SDS011;8529;48.108;-1.706;2022-11-12T13:41:56;19.92;;;10.07;;
16824;SDS011;8529;48.108;-1.706;2022-11-12T13:44:41;14.65;;;9.48;;
16824;SDS011;8529;48.108;-1.706;2022-11-12T13:47:10;15.63;;;10.90;;
16824;SDS011;8529;48.108;-1.706;2022-11-12T13:49:41;16.83;;;11.18;;
16824;SDS011;8529;48.108;-1.706;2022-11-12T13:52:10;16.67;;;10.80;;
16824;SDS011;8529;48.108;-1.706;2022-11-12T13:54:41;12.57;;;9.73;;
16824;SDS011;8529;48.108;-1.706;2022-11-12T13:57:27;19.02;;;10.40;;
16824;SDS011;8529;48.108;-1.706;2022-11-12T14:00:09;15.82;;;10.13;;
16824;SDS011;8529;48.108;-1.706;2022-11-12T14:02:52;19.25;;;10.07;;
16824;SDS011;8529;48.108;-1.706;2022-11-12T14:05:21;14.18;;;9.68;;
16824;SDS011;8529;48.108;-1.706;2022-11-12T14:07:53;15.57;;;9.63;;
16824;SDS011;8529;48.108;-1.706;2022-11-12T14:10:42;19.23;;;11.32;;
16824;SDS011;8529;48.108;-1.706;2022-11-12T14:13:23;13.45;;;9.52;;
16824;SDS011;8529;48.108;-1.706;2022-11-12T14:16:02;14.63;;;10.30;;
16824;SDS011;8529;48.108;-1.706;2022-11-12T14:18:43;14.40;;;9.65;;
16824;SDS011;8529;48.108;-1.706;2022-11-12T14:21:23;13.18;;;9.68;;
16824;SDS011;8529;48.108;-1.706;2022-11-12T14:23:50;20.35;;;11.15;;
16824;SDS011;8529;48.108;-1.706;2022-11-12T14:26:33;13.48;;;9.40;;
16824;SDS011;8529;48.108;-1.706;2022-11-12T14:29:01;13.30;;;9.63;;
16824;SDS011;8529;48.108;-1.706;2022-11-12T14:31:28;16.08;;;9.63;;
16824;SDS011;8529;48.108;-1.706;2022-11-12T14:33:55;14.15;;;9.27;;
16824;SDS011;8529;48.108;-1.706;2022-11-12T14:36:22;11.65;;;8.70;;
16824;SDS011;8529;48.108;-1.706;2022-11-12T14:38:52;16.38;;;9.75;;
16824;SDS011;8529;48.108;-1.706;2022-11-12T14:41:22;62.00;;;28.02;;
16824;SDS011;8529;48.108;-1.706;2022-11-12T14:43:55;31.55;;;14.80;;
16824;SDS011;8529;48.108;-1.706;2022-11-12T14:46:25;18.90;;;10.20;;
16824;SDS011;8529;48.108;-1.706;2022-11-12T14:48:55;15.38;;;9.45;;
16824;SDS011;8529;48.108;-1.706;2022-11-12T14:51:25;18.20;;;9.57;;
16824;SDS011;8529;48.108;-1.706;2022-11-12T14:53:55;16.08;;;9.55;;
16824;SDS011;8529;48.108;-1.706;2022-11-12T14:56:27;13.18;;;9.30;;
16824;SDS011;8529;48.108;-1.706;2022-11-12T14:58:58;20.63;;;12.13;;